Time;durP1;ratioP1;P1;durP2;ratioP2;P2;SDS_P1;SDS_P2;PMS_P1;PMS_P2;Temp;Humidity;BMP_temperature;BMP_pressure;BME280_temperature;BME280_humidity;BME280_pressure;Samples;Min_cycle;Max_cycle;Signal;HPM_P1;HPM_P2
2022/08/30 00:01:55;;;;;;;19.48;9.20;;;;;;;;;;10591097;27;20070;-77
2022/08/30 00:07:01;;;;;;;18.55;8.90;;;;;;;;;;10605757;27;20032;-76
2022/08/30 00:12:05;;;;;;;16.58;8.85;;;;;;;;;;10607721;27;20118;-77
2022/08/30 00:17:12;;;;;;;20.98;9.32;;;;;;;;;;10604552;27;20056;-76
2022/08/30 00:22:17;;;;;;;22.20;9.82;;;;;;;;;;10609979;27;20047;-77
2022/08/30 00:27:22;;;;;;;20.15;9.60;;;;;;;;;;10587438;27;20479;-77
2022/08/30 00:32:25;;;;;;;19.67;9.60;;;;;;;;;;10603472;27;20476;-76
2022/08/30 00:37:27;;;;;;;18.37;9.67;;;;;;;;;;10600852;27;20031;-77
2022/08/30 00:42:32;;;;;;;19.40;9.10;;;;;;;;;;10606650;27;20047;-76
2022/08/30 00:47:35;;;;;;;16.60;8.48;;;;;;;;;;10604888;27;20043;-78
2022/08/30 00:52:38;;;;;;;16.30;8.45;;;;;;;;;;10594040;27;20635;-77
2022/08/30 00:57:43;;;;;;;17.23;9.05;;;;;;;;;;10606910;27;20074;-77
2022/08/30 01:02:47;;;;;;;18.20;9.07;;;;;;;;;;10606748;27;20065;-77
2022/08/30 01:07:53;;;;;;;20.25;10.43;;;;;;;;;;10607236;27;20106;-79
2022/08/30 01:12:57;;;;;;;21.60;10.73;;;;;;;;;;10610608;27;20088;-79
2022/08/30 01:18:01;;;;;;;17.23;8.30;;;;;;;;;;10604597;27;20037;-77
2022/08/30 01:23:11;;;;;;;18.17;9.13;;;;;;;;;;10609167;27;20051;-77
2022/08/30 01:28:15;;;;;;;22.38;10.20;;;;;;;;;;10607338;27;20084;-79
2022/08/30 01:33:18;;;;;;;20.13;10.73;;;;;;;;;;10602873;27;20043;-79
2022/08/30 01:38:24;;;;;;;19.90;9.77;;;;;;;;;;10598851;27;20039;-78
2022/08/30 01:43:39;;;;;;;19.73;9.90;;;;;;;;;;10603755;27;20142;-78
2022/08/30 01:48:42;;;;;;;18.77;9.93;;;;;;;;;;10608655;27;20039;-77
2022/08/30 01:53:57;;;;;;;23.55;10.95;;;;;;;;;;10609040;27;20051;-77
2022/08/30 01:59:00;;;;;;;20.73;10.35;;;;;;;;;;10611426;28;20035;-77
2022/08/30 02:04:05;;;;;;;21.48;10.52;;;;;;;;;;10604593;27;20039;-77
2022/08/30 02:09:08;;;;;;;;;;;;;;;;;;10608071;27;20039;-77
2022/08/30 02:14:12;;;;;;;21.08;10.77;;;;;;;;;;10603900;27;19926;-77
2022/08/30 02:19:16;;;;;;;22.05;10.70;;;;;;;;;;10613692;27;20063;-78
2022/08/30 02:24:20;;;;;;;21.95;11.23;;;;;;;;;;10614169;27;20063;-77
2022/08/30 02:29:25;;;;;;;21.33;11.00;;;;;;;;;;10601195;27;20069;-78
2022/08/30 02:34:27;;;;;;;21.58;11.07;;;;;;;;;;10610536;27;20074;-77
2022/08/30 02:39:30;;;;;;;22.80;11.45;;;;;;;;;;10616680;27;20119;-78
2022/08/30 02:44:34;;;;;;;24.38;11.63;;;;;;;;;;10617849;27;20043;-76
2022/08/30 02:49:37;;;;;;;25.30;11.85;;;;;;;;;;10615627;27;20179;-76
2022/08/30 02:54:39;;;;;;;24.95;11.65;;;;;;;;;;10612888;27;20575;-76
2022/08/30 02:59:44;;;;;;;22.02;10.95;;;;;;;;;;10611543;27;20142;-76
2022/08/30 03:04:47;;;;;;;21.40;10.75;;;;;;;;;;10612579;27;20110;-76
2022/08/30 03:09:51;;;;;;;25.50;11.43;;;;;;;;;;10614494;27;20067;-76
2022/08/30 03:14:54;;;;;;;;;;;;;;;;;;10616464;27;20046;-77
2022/08/30 03:19:59;;;;;;;22.80;10.82;;;;;;;;;;10613543;27;19919;-77
2022/08/30 03:25:02;;;;;;;22.05;10.93;;;;;;;;;;10613940;27;20043;-77
2022/08/30 03:30:06;;;;;;;24.83;11.13;;;;;;;;;;10608939;27;20074;-77
2022/08/30 03:35:08;;;;;;;;;;;;;;;;;;10616981;27;20042;-77
2022/08/30 03:40:15;;;;;;;20.08;10.15;;;;;;;;;;10615090;27;19923;-78
2022/08/30 03:45:20;;;;;;;19.35;9.93;;;;;;;;;;10617042;27;20045;-77
2022/08/30 03:50:22;;;;;;;20.25;9.85;;;;;;;;;;10630461;27;20370;-77
2022/08/30 03:55:27;;;;;;;19.83;9.57;;;;;;;;;;10610460;27;20133;-77
2022/08/30 04:00:30;;;;;;;24.08;11.13;;;;;;;;;;10608563;27;20112;-77
2022/08/30 04:05:33;;;;;;;20.73;9.93;;;;;;;;;;10592505;27;20451;-77
2022/08/30 04:10:37;;;;;;;22.02;10.70;;;;;;;;;;10608710;27;20066;-77
2022/08/30 04:15:40;;;;;;;21.35;10.25;;;;;;;;;;10607925;27;20155;-77
2022/08/30 04:20:43;;;;;;;17.63;10.03;;;;;;;;;;10618144;27;20430;-77
2022/08/30 04:25:47;;;;;;;19.07;9.70;;;;;;;;;;10609383;27;20047;-76
2022/08/30 04:30:50;;;;;;;19.10;10.15;;;;;;;;;;10607497;27;20062;-77
2022/08/30 04:35:53;;;;;;;22.27;10.52;;;;;;;;;;10609568;27;20122;-77
2022/08/30 04:40:58;;;;;;;23.83;10.95;;;;;;;;;;10607932;27;20073;-77
2022/08/30 04:46:04;;;;;;;22.23;9.85;;;;;;;;;;10608697;27;20067;-78
2022/08/30 04:51:08;;;;;;;20.10;9.77;;;;;;;;;;10608298;27;20154;-77
2022/08/30 04:56:15;;;;;;;16.95;8.95;;;;;;;;;;10607328;27;20042;-77
2022/08/30 05:01:19;;;;;;;19.40;8.80;;;;;;;;;;10608587;27;20070;-77
2022/08/30 05:06:27;;;;;;;19.70;8.70;;;;;;;;;;10606459;27;20035;-77
2022/08/30 05:11:31;;;;;;;20.50;8.60;;;;;;;;;;10606242;27;20039;-77
2022/08/30 05:16:34;;;;;;;18.63;9.27;;;;;;;;;;10608882;27;20480;-76
2022/08/30 05:21:39;;;;;;;21.87;9.43;;;;;;;;;;10607350;27;20063;-77
2022/08/30 05:26:44;;;;;;;18.60;9.07;;;;;;;;;;10604400;27;20278;-76
2022/08/30 05:31:46;;;;;;;17.90;8.90;;;;;;;;;;10604249;27;20092;-76
2022/08/30 05:36:50;;;;;;;15.95;8.15;;;;;;;;;;10607411;27;20118;-77
2022/08/30 05:41:57;;;;;;;13.77;7.00;;;;;;;;;;10606394;27;20092;-76
2022/08/30 05:47:00;;;;;;;13.38;7.25;;;;;;;;;;10607578;27;20488;-76
2022/08/30 05:52:03;;;;;;;16.38;6.95;;;;;;;;;;10605638;27;20046;-76
2022/08/30 05:57:08;;;;;;;15.93;7.72;;;;;;;;;;10607349;27;20031;-75
2022/08/30 06:02:10;;;;;;;13.10;7.28;;;;;;;;;;10610274;27;20035;-75
2022/08/30 06:07:13;;;;;;;14.53;7.43;;;;;;;;;;10608892;28;20031;-76
2022/08/30 06:12:20;;;;;;;12.55;6.72;;;;;;;;;;10609714;27;20135;-76
2022/08/30 06:17:23;;;;;;;13.60;6.55;;;;;;;;;;10604394;28;20131;-76
2022/08/30 06:22:26;;;;;;;13.63;6.70;;;;;;;;;;10609751;27;20096;-76
2022/08/30 06:27:30;;;;;;;13.43;6.67;;;;;;;;;;10605810;28;20135;-76
2022/08/30 06:32:34;;;;;;;14.20;6.10;;;;;;;;;;10606800;27;20041;-76
2022/08/30 06:37:37;;;;;;;13.57;6.88;;;;;;;;;;10608182;28;20066;-77
2022/08/30 06:42:42;;;;;;;10.15;5.85;;;;;;;;;;10606350;28;20072;-77
2022/08/30 06:47:46;;;;;;;11.27;6.43;;;;;;;;;;10607333;28;20062;-76
2022/08/30 06:52:48;;;;;;;11.63;5.30;;;;;;;;;;10606635;27;20047;-76
2022/08/30 06:57:53;;;;;;;10.77;5.40;;;;;;;;;;10608591;28;20485;-76
2022/08/30 07:02:56;;;;;;;8.38;5.18;;;;;;;;;;10608239;27;20327;-75
2022/08/30 07:07:59;;;;;;;10.27;5.75;;;;;;;;;;10613225;27;20038;-76
2022/08/30 07:13:03;;;;;;;9.63;5.50;;;;;;;;;;10591581;27;20042;-76
2022/08/30 07:23:26;;;;;;;10.50;6.57;;;;;;;;;;10614305;27;20054;-76
2022/08/30 07:28:30;;;;;;;7.93;6.13;;;;;;;;;;10612200;27;20411;-76
2022/08/30 07:33:33;;;;;;;11.00;6.57;;;;;;;;;;10607370;27;20047;-76
2022/08/30 07:38:37;;;;;;;9.93;6.68;;;;;;;;;;10592974;27;20522;-77
2022/08/30 07:43:41;;;;;;;7.38;6.22;;;;;;;;;;10593917;27;20043;-77
2022/08/30 07:48:44;;;;;;;7.40;6.32;;;;;;;;;;10611844;27;20267;-77
2022/08/30 07:53:46;;;;;;;8.05;6.32;;;;;;;;;;10608042;27;20038;-77
2022/08/30 07:58:51;;;;;;;8.23;6.78;;;;;;;;;;10613059;27;20047;-76
2022/08/30 08:03:53;;;;;;;6.75;6.03;;;;;;;;;;10608185;27;20054;-77
2022/08/30 08:09:00;;;;;;;9.80;5.72;;;;;;;;;;10610725;27;20048;-76
2022/08/30 08:14:04;;;;;;;7.80;5.65;;;;;;;;;;10608466;27;20039;-77
2022/08/30 08:19:07;;;;;;;8.95;5.22;;;;;;;;;;10612885;27;20395;-77
2022/08/30 08:24:10;;;;;;;6.60;5.60;;;;;;;;;;10591242;27;20053;-77
2022/08/30 08:29:15;;;;;;;6.45;5.63;;;;;;;;;;10612524;27;20062;-77
2022/08/30 08:34:22;;;;;;;8.52;5.90;;;;;;;;;;10605951;27;20117;-77
2022/08/30 08:39:24;;;;;;;8.40;5.50;;;;;;;;;;10611876;27;20130;-77
2022/08/30 08:44:38;;;;;;;6.90;5.53;;;;;;;;;;10608926;27;20093;-77
2022/08/30 08:49:42;;;;;;;9.60;5.70;;;;;;;;;;10610168;27;20039;-77
2022/08/30 08:54:48;;;;;;;11.60;6.47;;;;;;;;;;10611531;27;20058;-77
2022/08/30 08:59:53;;;;;;;7.80;5.80;;;;;;;;;;10605828;27;20283;-77
2022/08/30 09:04:59;;;;;;;7.65;5.93;;;;;;;;;;10605244;27;20228;-77
2022/08/30 09:10:03;;;;;;;7.80;5.47;;;;;;;;;;10608773;27;20062;-77
2022/08/30 09:15:15;;;;;;;6.97;5.82;;;;;;;;;;10605601;27;20138;-76
2022/08/30 09:20:26;;;;;;;7.20;6.22;;;;;;;;;;10610584;27;20123;-77
2022/08/30 09:25:30;;;;;;;8.02;6.07;;;;;;;;;;10606480;27;20246;-77
2022/08/30 09:30:34;;;;;;;6.28;5.68;;;;;;;;;;10606333;27;20039;-77
2022/08/30 09:35:38;;;;;;;6.07;5.47;;;;;;;;;;10610520;27;20349;-77
2022/08/30 09:40:42;;;;;;;9.88;5.45;;;;;;;;;;10604620;27;20050;-78
2022/08/30 09:45:47;;;;;;;8.45;6.00;;;;;;;;;;10610574;27;20046;-77
2022/08/30 09:50:55;;;;;;;9.07;6.93;;;;;;;;;;10607108;27;20130;-75
2022/08/30 09:56:03;;;;;;;9.95;5.80;;;;;;;;;;10607772;27;20094;-77
2022/08/30 10:01:11;;;;;;;7.97;6.05;;;;;;;;;;10610173;27;20063;-77
2022/08/30 10:06:18;;;;;;;6.38;5.47;;;;;;;;;;10606241;27;20508;-78
2022/08/30 10:11:27;;;;;;;7.60;6.90;;;;;;;;;;10605204;28;20043;-78
2022/08/30 10:16:37;;;;;;;6.63;6.03;;;;;;;;;;10603872;28;20412;-78
2022/08/30 10:21:42;;;;;;;7.03;5.22;;;;;;;;;;10606967;27;20123;-78
2022/08/30 10:26:49;;;;;;;6.10;5.50;;;;;;;;;;10603568;27;20294;-78
2022/08/30 10:31:58;;;;;;;7.30;5.88;;;;;;;;;;10609969;28;20510;-77
2022/08/30 10:37:03;;;;;;;6.57;5.45;;;;;;;;;;10610990;27;20270;-77
2022/08/30 10:42:08;;;;;;;7.60;5.20;;;;;;;;;;10614400;27;20096;-77
2022/08/30 10:47:20;;;;;;;6.75;5.00;;;;;;;;;;10619673;27;20047;-77
2022/08/30 10:52:31;;;;;;;5.40;4.32;;;;;;;;;;10616744;27;20035;-77
2022/08/30 10:57:47;;;;;;;8.45;4.53;;;;;;;;;;10618157;27;20035;-78
2022/08/30 11:03:27;;;;;;;4.70;4.30;;;;;;;;;;10614290;27;20035;-77
2022/08/30 11:08:51;;;;;;;4.55;4.15;;;;;;;;;;10613692;27;20043;-78
2022/08/30 11:13:55;;;;;;;7.53;4.95;;;;;;;;;;10609387;27;20043;-77
2022/08/30 11:19:25;;;;;;;;;;;;;;;;;;;;;
2022/08/30 11:25:01;;;;;;;8.27;4.95;;;;;;;;;;10597230;27;20043;-76
2022/08/30 11:30:31;;;;;;;5.40;4.90;;;;;;;;;;10598522;27;20027;-78
2022/08/30 11:35:36;;;;;;;6.82;5.28;;;;;;;;;;10613822;27;20493;-78
2022/08/30 11:40:47;;;;;;;6.38;5.10;;;;;;;;;;10611360;27;20132;-78
2022/08/30 11:46:13;;;;;;;7.70;5.00;;;;;;;;;;10608463;27;20055;-78
2022/08/30 11:51:23;;;;;;;7.07;5.78;;;;;;;;;;10592828;27;20043;-77
2022/08/30 11:56:28;;;;;;;6.10;5.50;;;;;;;;;;10611796;27;20116;-77
2022/08/30 12:01:33;;;;;;;7.65;6.28;;;;;;;;;;10608434;27;20118;-77
2022/08/30 12:06:58;;;;;;;6.05;5.15;;;;;;;;;;10614171;27;20134;-77
2022/08/30 12:12:02;;;;;;;8.90;4.80;;;;;;;;;;10611309;27;20038;-77
2022/08/30 12:22:36;;;;;;;9.07;5.00;;;;;;;;;;10610716;27;20043;-77
2022/08/30 12:27:39;;;;;;;6.85;5.47;;;;;;;;;;10612038;27;20120;-77
2022/08/30 12:32:43;;;;;;;8.65;5.05;;;;;;;;;;10607551;27;20043;-77
2022/08/30 12:37:56;;;;;;;6.53;4.70;;;;;;;;;;10610531;27;20138;-77
2022/08/30 12:43:00;;;;;;;7.03;5.00;;;;;;;;;;10610213;27;20050;-78
2022/08/30 12:48:05;;;;;;;7.95;4.93;;;;;;;;;;10612091;27;20062;-78
2022/08/30 12:53:11;;;;;;;7.20;4.80;;;;;;;;;;10593454;27;20035;-77
2022/08/30 12:58:16;;;;;;;5.45;4.30;;;;;;;;;;10592930;27;20476;-78
2022/08/30 13:03:28;;;;;;;6.55;4.60;;;;;;;;;;10605988;27;20118;-77
2022/08/30 13:08:35;;;;;;;6.30;4.43;;;;;;;;;;10612765;27;20039;-76
2022/08/30 13:13:39;;;;;;;5.40;4.30;;;;;;;;;;10606412;27;20380;-79
2022/08/30 13:18:42;;;;;;;5.18;4.47;;;;;;;;;;10609875;27;20050;-77
2022/08/30 13:23:46;;;;;;;8.02;4.50;;;;;;;;;;10610796;27;20476;-77
2022/08/30 13:28:50;;;;;;;6.15;4.45;;;;;;;;;;10607869;27;20046;-77
2022/08/30 13:33:52;;;;;;;4.90;4.15;;;;;;;;;;10591757;27;20027;-77
2022/08/30 13:38:58;;;;;;;5.07;3.90;;;;;;;;;;10602941;27;20223;-77
2022/08/30 13:44:03;;;;;;;8.90;4.22;;;;;;;;;;10586509;27;20069;-77
2022/08/30 13:49:16;;;;;;;5.97;4.20;;;;;;;;;;10608341;27;20469;-77
2022/08/30 13:54:41;;;;;;;6.30;4.05;;;;;;;;;;10604720;27;20423;-77
2022/08/30 13:59:43;;;;;;;5.63;4.20;;;;;;;;;;10608292;27;20031;-77
2022/08/30 14:04:52;;;;;;;5.93;4.35;;;;;;;;;;10602976;28;20041;-77
2022/08/30 14:09:59;;;;;;;6.30;4.10;;;;;;;;;;10607540;27;20062;-77
2022/08/30 14:15:21;;;;;;;7.10;4.50;;;;;;;;;;10610955;27;20044;-77
2022/08/30 14:20:25;;;;;;;4.65;3.72;;;;;;;;;;10616807;27;20122;-77
2022/08/30 14:25:30;;;;;;;5.93;3.60;;;;;;;;;;10611993;27;20085;-76
2022/08/30 14:30:33;;;;;;;7.25;3.70;;;;;;;;;;10615708;27;20503;-76
2022/08/30 14:35:35;;;;;;;5.50;3.80;;;;;;;;;;10615464;27;20551;-77
2022/08/30 14:40:42;;;;;;;5.63;3.65;;;;;;;;;;10615541;27;20400;-76
2022/08/30 14:45:45;;;;;;;7.55;3.80;;;;;;;;;;10615812;27;20039;-76
2022/08/30 14:50:48;;;;;;;6.50;3.85;;;;;;;;;;10614252;27;20080;-76
2022/08/30 14:55:52;;;;;;;5.85;3.90;;;;;;;;;;10598081;27;20057;-76
2022/08/30 15:00:54;;;;;;;6.40;3.65;;;;;;;;;;10616697;27;20091;-76
2022/08/30 15:05:57;;;;;;;5.88;3.60;;;;;;;;;;10616288;27;20050;-74
2022/08/30 15:11:06;;;;;;;6.32;3.88;;;;;;;;;;10617068;27;20581;-76
2022/08/30 15:16:10;;;;;;;5.80;3.75;;;;;;;;;;10595087;27;20040;-76
2022/08/30 15:21:13;;;;;;;5.38;3.70;;;;;;;;;;10615798;27;20276;-76
2022/08/30 15:26:17;;;;;;;6.25;3.47;;;;;;;;;;10613233;27;20415;-75
2022/08/30 15:31:21;;;;;;;7.50;3.58;;;;;;;;;;10608583;27;20067;-76
2022/08/30 15:36:25;;;;;;;6.82;4.10;;;;;;;;;;10611703;27;20456;-75
2022/08/30 15:41:29;;;;;;;5.70;3.25;;;;;;;;;;10609912;27;20039;-76
2022/08/30 15:46:33;;;;;;;6.07;4.00;;;;;;;;;;10614865;27;20031;-77
2022/08/30 15:51:36;;;;;;;6.07;3.53;;;;;;;;;;10610922;27;20404;-76
2022/08/30 15:56:47;;;;;;;5.82;3.83;;;;;;;;;;10610050;27;20039;-76
2022/08/30 16:01:50;;;;;;;6.80;3.60;;;;;;;;;;10610946;27;20031;-75
2022/08/30 16:06:53;;;;;;;6.03;3.67;;;;;;;;;;10610456;27;20294;-76
2022/08/30 16:11:57;;;;;;;6.13;3.80;;;;;;;;;;10613194;27;20035;-76
2022/08/30 16:16:59;;;;;;;6.85;3.35;;;;;;;;;;10605770;27;20701;-75
2022/08/30 16:22:02;;;;;;;10.18;3.63;;;;;;;;;;10608735;27;20506;-76
2022/08/30 16:27:06;;;;;;;6.95;4.00;;;;;;;;;;10610333;27;20455;-76
2022/08/30 16:32:10;;;;;;;7.15;3.75;;;;;;;;;;10610232;27;20037;-76
2022/08/30 16:37:13;;;;;;;6.30;3.80;;;;;;;;;;10609325;27;20630;-77
2022/08/30 16:42:17;;;;;;;6.40;3.90;;;;;;;;;;10587378;27;20043;-76
2022/08/30 16:47:22;;;;;;;6.55;3.95;;;;;;;;;;10607082;27;20471;-76
2022/08/30 16:52:25;;;;;;;7.90;4.20;;;;;;;;;;10605379;27;20201;-76
2022/08/30 16:57:29;;;;;;;6.78;3.85;;;;;;;;;;10608580;27;20542;-76
2022/08/30 17:02:32;;;;;;;5.20;3.75;;;;;;;;;;10605775;27;20559;-76
2022/08/30 17:07:35;;;;;;;6.93;3.90;;;;;;;;;;10606137;27;20031;-76
2022/08/30 17:12:40;;;;;;;6.65;4.25;;;;;;;;;;10586894;27;20047;-76
2022/08/30 17:17:47;;;;;;;6.70;4.28;;;;;;;;;;10610269;27;20049;-77
2022/08/30 17:22:50;;;;;;;7.78;4.25;;;;;;;;;;10574595;27;20031;-76
2022/08/30 17:27:54;;;;;;;11.32;4.40;;;;;;;;;;10606832;27;20035;-77
2022/08/30 17:32:57;;;;;;;6.38;4.00;;;;;;;;;;10608446;27;20042;-77
2022/08/30 17:38:00;;;;;;;;;;;;;;;;;;10607528;27;20147;-75
2022/08/30 17:43:04;;;;;;;6.43;3.90;;;;;;;;;;10604765;27;19919;-77
2022/08/30 17:48:07;;;;;;;7.85;4.00;;;;;;;;;;10608770;27;20046;-77
2022/08/30 17:53:10;;;;;;;8.27;3.80;;;;;;;;;;10607433;27;20063;-77
2022/08/30 17:58:14;;;;;;;7.20;3.70;;;;;;;;;;10607802;27;20046;-77
2022/08/30 18:03:17;;;;;;;6.38;3.60;;;;;;;;;;10609166;27;20047;-76
2022/08/30 18:08:20;;;;;;;7.05;3.85;;;;;;;;;;10604121;28;20134;-76
2022/08/30 18:13:24;;;;;;;8.95;4.20;;;;;;;;;;10604926;27;20035;-77
2022/08/30 18:18:27;;;;;;;7.45;4.25;;;;;;;;;;10605014;27;20126;-77
2022/08/30 18:23:30;;;;;;;7.00;4.00;;;;;;;;;;10606157;27;20072;-77
2022/08/30 18:28:35;;;;;;;12.77;4.45;;;;;;;;;;10608829;27;20063;-77
2022/08/30 18:33:38;;;;;;;11.73;4.35;;;;;;;;;;10604029;27;20039;-77
2022/08/30 18:38:41;;;;;;;7.88;4.70;;;;;;;;;;10607272;28;20039;-77
2022/08/30 18:43:45;;;;;;;11.38;5.10;;;;;;;;;;10605963;27;20043;-77
2022/08/30 18:48:49;;;;;;;9.77;4.70;;;;;;;;;;10604464;28;20483;-77
2022/08/30 18:53:53;;;;;;;14.05;4.80;;;;;;;;;;10603772;27;20415;-72
2022/08/30 18:58:58;;;;;;;9.52;5.07;;;;;;;;;;10603291;27;20050;-70
2022/08/30 19:04:01;;;;;;;11.82;5.78;;;;;;;;;;10613131;27;20118;-71
2022/08/30 19:09:04;;;;;;;;;;;;;;;;;;10612005;27;20541;-71
2022/08/30 19:14:12;;;;;;;8.57;4.50;;;;;;;;;;10611372;27;19930;-71
2022/08/30 19:19:15;;;;;;;8.52;5.10;;;;;;;;;;10614300;27;20047;-72
2022/08/30 19:24:18;;;;;;;10.98;5.05;;;;;;;;;;10611803;27;20138;-72
2022/08/30 19:29:22;;;;;;;9.63;4.78;;;;;;;;;;10612372;27;20070;-70
2022/08/30 19:34:25;;;;;;;8.52;4.40;;;;;;;;;;10612160;27;20113;-71
2022/08/30 19:39:29;;;;;;;9.95;4.43;;;;;;;;;;10612471;27;20054;-71
2022/08/30 19:44:32;;;;;;;;;;;;;;;;;;10608410;27;20031;-70
2022/08/30 19:49:36;;;;;;;12.60;6.25;;;;;;;;;;10611764;27;20234;-71
2022/08/30 19:54:39;;;;;;;15.50;7.55;;;;;;;;;;10596254;27;20137;-70
2022/08/30 19:59:43;;;;;;;11.07;5.35;;;;;;;;;;10606728;27;20051;-76
2022/08/30 20:04:47;;;;;;;7.72;4.78;;;;;;;;;;10612151;27;20039;-74
2022/08/30 20:15:34;;;;;;;10.82;5.97;;;;;;;;;;10598810;27;20054;-75
2022/08/30 20:20:40;;;;;;;16.48;8.02;;;;;;;;;;10608375;27;20878;-74
2022/08/30 20:25:53;;;;;;;9.90;4.80;;;;;;;;;;10613021;27;20080;-76
2022/08/30 20:31:01;;;;;;;14.43;6.57;;;;;;;;;;10609556;27;20046;-75
2022/08/30 20:36:27;;;;;;;8.45;5.10;;;;;;;;;;10590925;27;20124;-75
2022/08/30 20:41:32;;;;;;;11.63;6.10;;;;;;;;;;10591662;27;20058;-76
2022/08/30 20:46:37;;;;;;;11.95;5.60;;;;;;;;;;10606267;27;20066;-75
2022/08/30 20:51:48;;;;;;;9.75;5.13;;;;;;;;;;10605570;27;20178;-75
2022/08/30 20:56:58;;;;;;;12.07;5.43;;;;;;;;;;10605911;27;20037;-75
2022/08/30 21:02:11;;;;;;;8.20;4.93;;;;;;;;;;10604177;27;20118;-75
2022/08/30 21:07:18;;;;;;;10.88;5.95;;;;;;;;;;10586662;27;20115;-75
2022/08/30 21:12:37;;;;;;;10.45;5.22;;;;;;;;;;10581339;27;20035;-74
2022/08/30 21:17:51;;;;;;;9.73;5.28;;;;;;;;;;10586058;27;20039;-73
2022/08/30 21:23:01;;;;;;;9.75;5.53;;;;;;;;;;10600823;27;20122;-78
2022/08/30 21:28:07;;;;;;;10.02;5.32;;;;;;;;;;10597901;27;20042;-77
2022/08/30 21:33:16;;;;;;;12.00;5.70;;;;;;;;;;10582273;27;20479;-76
2022/08/30 21:38:38;;;;;;;10.38;6.18;;;;;;;;;;10605716;27;20045;-77
2022/08/30 21:43:49;;;;;;;9.85;5.47;;;;;;;;;;10580710;27;20036;-77
2022/08/30 21:48:54;;;;;;;11.27;5.63;;;;;;;;;;10597185;27;20052;-77
2022/08/30 21:54:02;;;;;;;11.50;5.90;;;;;;;;;;10578753;27;20090;-75
2022/08/30 21:59:18;;;;;;;11.55;5.63;;;;;;;;;;10601237;27;20445;-75
2022/08/30 22:04:27;;;;;;;10.68;5.75;;;;;;;;;;10585460;27;20181;-75
2022/08/30 22:09:35;;;;;;;14.32;6.43;;;;;;;;;;10596227;27;20039;-75
2022/08/30 22:14:46;;;;;;;21.08;10.65;;;;;;;;;;10579889;28;20829;-75
2022/08/30 22:19:59;;;;;;;11.93;6.18;;;;;;;;;;10599403;28;20491;-74
2022/08/30 22:25:09;;;;;;;12.07;6.43;;;;;;;;;;10598671;27;20037;-75
2022/08/30 22:30:16;;;;;;;11.07;5.95;;;;;;;;;;10605389;27;20104;-75
2022/08/30 22:35:25;;;;;;;15.48;6.57;;;;;;;;;;10609831;27;20039;-75
2022/08/30 22:40:30;;;;;;;12.90;6.78;;;;;;;;;;10588392;27;20491;-75
2022/08/30 22:45:36;;;;;;;13.82;7.07;;;;;;;;;;10572157;27;20088;-76
2022/08/30 22:50:41;;;;;;;11.90;6.93;;;;;;;;;;10612496;27;20267;-76
2022/08/30 22:55:47;;;;;;;11.60;6.35;;;;;;;;;;10587598;27;20139;-77
2022/08/30 23:00:56;;;;;;;14.90;6.88;;;;;;;;;;10589378;27;20047;-76
2022/08/30 23:06:14;;;;;;;14.18;7.35;;;;;;;;;;10612028;27;20031;-76
2022/08/30 23:11:19;;;;;;;13.05;7.40;;;;;;;;;;10592219;27;20035;-76
2022/08/30 23:16:26;;;;;;;14.10;7.13;;;;;;;;;;10588588;27;20035;-76
2022/08/30 23:21:30;;;;;;;13.52;7.43;;;;;;;;;;10605116;27;20054;-76
